createdAt,value
2017-10-15T13:41:58.817Z,999.97
2017-10-15T13:42:58.590Z,999.91
2017-10-15T13:43:59.825Z,999.92
2017-10-15T13:44:59.698Z,999.88
2017-10-15T13:45:58.402Z,999.90
2017-10-15T13:46:58.390Z,999.89
2017-10-15T13:47:58.391Z,999.90
2017-10-15T13:48:58.369Z,999.87
2017-10-15T13:49:58.451Z,999.81
2017-10-15T13:50:58.384Z,999.74
2017-10-15T13:51:58.367Z,999.77
2017-10-15T13:52:58.320Z,999.69
2017-10-15T13:53:58.334Z,999.77
2017-10-15T13:54:58.296Z,999.71
2017-10-15T13:55:58.312Z,999.71
2017-10-15T13:56:58.311Z,999.71
2017-10-15T13:57:58.272Z,999.73
2017-10-15T13:58:58.330Z,999.71
2017-10-15T13:59:58.245Z,999.70
2017-10-15T14:00:58.220Z,999.70
2017-10-15T14:01:58.252Z,999.69
2017-10-15T14:02:58.209Z,999.65
2017-10-15T14:03:58.240Z,999.67
2017-10-15T14:04:58.682Z,999.65
2017-10-15T14:05:58.253Z,999.65
2017-10-15T14:06:58.192Z,999.66
2017-10-15T14:07:58.231Z,999.63
2017-10-15T14:08:58.179Z,999.64
2017-10-15T14:09:58.137Z,999.63
2017-10-15T14:10:58.275Z,999.59
2017-10-15T14:11:58.146Z,999.55
2017-10-15T14:12:58.104Z,999.58
2017-10-15T14:13:58.139Z,999.60
2017-10-15T14:14:58.122Z,999.59
2017-10-15T14:15:58.107Z,999.53
2017-10-15T14:16:58.137Z,999.62
2017-10-15T14:17:58.048Z,999.57
2017-10-15T14:18:58.043Z,999.55
2017-10-15T14:19:58.057Z,999.55
2017-10-15T14:20:58.015Z,999.58
2017-10-15T14:21:58.049Z,999.54
2017-10-15T14:22:58.573Z,999.51
2017-10-15T14:23:58.004Z,999.51
2017-10-15T14:24:57.978Z,999.51
2017-10-15T14:25:57.983Z,999.54
2017-10-15T14:26:58.004Z,999.51
2017-10-15T14:27:57.952Z,999.48
2017-10-15T14:28:57.947Z,999.47
2017-10-15T14:29:57.965Z,999.50
2017-10-15T14:30:57.921Z,999.47
2017-10-15T14:31:57.925Z,999.47
2017-10-15T14:32:57.897Z,999.48
2017-10-15T14:33:57.914Z,999.44
2017-10-15T14:34:57.927Z,999.44
2017-10-15T14:35:58.564Z,999.40
2017-10-15T14:36:57.874Z,999.44
2017-10-15T14:37:57.876Z,999.39
2017-10-15T14:38:57.873Z,999.38
2017-10-15T14:39:57.870Z,999.37
2017-10-15T14:40:57.855Z,999.40
2017-10-15T14:41:58.884Z,999.38
2017-10-15T14:42:57.805Z,999.39
2017-10-15T14:43:57.812Z,999.39
2017-10-15T14:44:57.789Z,999.37
2017-10-15T14:45:57.798Z,999.40
2017-10-15T14:46:58.565Z,999.39
2017-10-15T14:47:57.757Z,999.36
2017-10-15T14:48:57.767Z,999.41
2017-10-15T14:49:57.740Z,999.36
2017-10-15T14:51:57.713Z,999.40
2017-10-15T14:52:57.702Z,999.39
2017-10-15T14:53:57.677Z,999.38
2017-10-15T14:54:57.700Z,999.32
2017-10-15T14:55:57.708Z,999.34
2017-10-15T14:56:57.793Z,999.35
2017-10-15T14:58:18.645Z,999.31
2017-10-15T14:58:58.707Z,999.33
2017-10-15T14:59:57.595Z,999.29
2017-10-15T15:00:57.599Z,999.31
2017-10-15T15:01:57.598Z,999.28
2017-10-15T15:02:57.583Z,999.29
2017-10-15T15:04:18.754Z,999.27
2017-10-15T15:04:57.578Z,999.24
2017-10-15T15:05:57.555Z,999.27
2017-10-15T15:06:57.536Z,999.25
2017-10-15T15:07:57.539Z,999.24
2017-10-15T15:08:57.493Z,999.23
2017-10-15T15:10:18.492Z,999.23
2017-10-15T15:10:57.523Z,999.23
2017-10-15T15:11:57.479Z,999.23
2017-10-15T15:12:57.455Z,999.26
2017-10-15T15:13:57.423Z,999.26
2017-10-15T15:14:57.448Z,999.23
2017-10-15T15:16:18.431Z,999.23
2017-10-15T15:16:57.402Z,999.22
2017-10-15T15:17:57.392Z,999.22
2017-10-15T15:18:57.405Z,999.27
2017-10-15T15:19:57.404Z,999.27
2017-10-15T15:20:57.404Z,999.28
2017-10-15T15:22:18.355Z,999.27
2017-10-15T15:22:57.320Z,999.27
2017-10-15T15:23:57.363Z,999.25
2017-10-15T15:24:57.319Z,999.19
2017-10-15T15:25:57.286Z,999.19
2017-10-15T15:26:57.288Z,999.18
2017-10-15T15:28:18.274Z,999.19
2017-10-15T15:28:57.241Z,999.20
2017-10-15T15:29:57.226Z,999.21
2017-10-15T15:30:57.222Z,999.19
2017-10-15T15:31:57.206Z,999.23
2017-10-15T15:32:57.217Z,999.21
2017-10-15T15:34:18.183Z,999.27
2017-10-15T15:34:57.158Z,999.30
2017-10-15T15:35:57.156Z,999.23
2017-10-15T15:36:57.160Z,999.23
2017-10-15T15:37:57.122Z,999.21
2017-10-15T15:38:57.110Z,999.24
2017-10-15T15:40:18.106Z,999.24
2017-10-15T15:40:57.088Z,999.22
2017-10-15T15:41:57.091Z,999.26
2017-10-15T15:42:57.063Z,999.23
2017-10-15T15:43:57.055Z,999.24
2017-10-15T15:44:57.051Z,999.25
2017-10-15T15:46:18.035Z,999.27
2017-10-15T15:46:57.046Z,999.23
2017-10-15T15:47:57.026Z,999.25
2017-10-15T15:48:56.983Z,999.24
2017-10-15T15:49:56.985Z,999.23
2017-10-15T15:50:56.964Z,999.25
2017-10-15T15:52:20.575Z,999.25
2017-10-15T15:52:56.966Z,999.23
2017-10-15T15:53:56.935Z,999.26
2017-10-15T15:54:56.941Z,999.26
2017-10-15T15:55:56.931Z,999.26
2017-10-15T15:56:56.911Z,999.26
2017-10-15T15:58:18.187Z,999.22
2017-10-15T15:58:57.007Z,999.25
2017-10-15T15:59:56.850Z,999.24
2017-10-15T16:00:56.828Z,999.23
2017-10-15T16:01:56.814Z,999.23
2017-10-15T16:02:56.788Z,999.25
2017-10-15T16:04:17.790Z,999.24
2017-10-15T16:04:56.760Z,999.28
2017-10-15T16:05:56.775Z,999.30
2017-10-15T16:06:56.731Z,999.29
2017-10-15T16:07:56.724Z,999.30
2017-10-15T16:08:57.520Z,999.30
2017-10-15T16:10:17.707Z,999.26
2017-10-15T16:10:56.671Z,999.31
2017-10-15T16:11:56.683Z,999.29
2017-10-15T16:12:56.659Z,999.32
2017-10-15T16:13:56.689Z,999.31
2017-10-15T16:14:56.616Z,999.35
2017-10-15T16:16:17.615Z,999.34
2017-10-15T16:16:56.615Z,999.36
2017-10-15T16:17:56.580Z,999.36
2017-10-15T16:18:56.581Z,999.34
2017-10-15T16:19:56.551Z,999.34
2017-10-15T16:20:56.669Z,999.39
2017-10-15T16:22:17.599Z,999.35
2017-10-15T16:22:56.579Z,999.35
2017-10-15T16:23:56.517Z,999.34
2017-10-15T16:24:56.523Z,999.35
2017-10-15T16:25:56.504Z,999.35
2017-10-15T16:26:56.446Z,999.36
2017-10-15T16:28:17.460Z,999.35
2017-10-15T16:28:56.426Z,999.40
2017-10-15T16:29:56.431Z,999.39
2017-10-15T16:30:56.401Z,999.40
2017-10-15T16:31:56.395Z,999.37
2017-10-15T16:32:56.360Z,999.41
2017-10-15T16:34:17.379Z,999.38
2017-10-15T16:34:56.333Z,999.37
2017-10-15T16:35:56.357Z,999.45
2017-10-15T16:36:58.106Z,999.47
2017-10-15T16:37:56.335Z,999.45
2017-10-15T16:38:56.308Z,999.46
2017-10-15T16:40:17.318Z,999.47
2017-10-15T16:40:56.239Z,999.48
2017-10-15T16:41:56.242Z,999.45
2017-10-15T16:42:56.257Z,999.49
2017-10-15T16:43:56.195Z,999.46
2017-10-15T16:44:56.172Z,999.48
2017-10-15T16:46:18.268Z,999.47
2017-10-15T16:46:56.159Z,999.49
2017-10-15T16:47:56.133Z,999.52
2017-10-15T16:48:56.144Z,999.54
2017-10-15T16:49:56.087Z,999.51
2017-10-15T16:50:56.084Z,999.49
2017-10-15T16:52:17.072Z,999.52
2017-10-15T16:52:56.069Z,999.54
2017-10-15T16:53:56.044Z,999.55
2017-10-15T16:54:56.015Z,999.58
2017-10-15T16:55:56.022Z,999.56
2017-10-15T16:56:56.001Z,999.56
2017-10-15T16:58:16.988Z,999.55
2017-10-15T16:58:55.951Z,999.58
2017-10-15T16:59:55.946Z,999.57
2017-10-15T17:00:55.930Z,999.54
2017-10-15T17:01:55.923Z,999.58
2017-10-15T17:02:55.911Z,999.57
2017-10-15T17:04:17.325Z,999.59
2017-10-15T17:04:55.870Z,999.54
2017-10-15T17:05:55.881Z,999.57
2017-10-15T17:06:55.865Z,999.59
2017-10-15T17:07:55.851Z,999.59
2017-10-15T17:08:55.817Z,999.59
2017-10-15T17:10:16.796Z,999.63
2017-10-15T17:10:55.773Z,999.61
2017-10-15T17:11:55.749Z,999.63
2017-10-15T17:12:55.735Z,999.60
2017-10-15T17:13:55.737Z,999.59
2017-10-15T17:14:55.715Z,999.60
2017-10-15T17:16:16.708Z,999.61
2017-10-15T17:16:55.691Z,999.62
2017-10-15T17:17:55.649Z,999.57
2017-10-15T17:18:55.636Z,999.57
2017-10-15T17:19:55.626Z,999.58
2017-10-15T17:20:55.629Z,999.60
2017-10-15T17:22:16.608Z,999.60
2017-10-15T17:22:55.889Z,999.63
2017-10-15T17:23:55.574Z,999.67
2017-10-15T17:24:55.534Z,999.67
2017-10-15T17:25:55.529Z,999.65
2017-10-15T17:26:55.686Z,999.66
2017-10-15T17:28:16.510Z,999.67
2017-10-15T17:28:55.474Z,999.67
2017-10-15T17:29:55.482Z,999.62
2017-10-15T17:30:55.433Z,999.67
2017-10-15T17:31:55.419Z,999.62
2017-10-15T17:32:55.402Z,999.65
2017-10-15T17:34:19.153Z,999.65
2017-10-15T17:35:02.357Z,999.64
2017-10-15T17:35:55.347Z,999.67
2017-10-15T17:36:55.369Z,999.67
2017-10-15T17:37:55.310Z,999.66
2017-10-15T17:38:55.332Z,999.70
2017-10-15T17:40:16.306Z,999.71
2017-10-15T17:40:55.291Z,999.72
2017-10-15T17:41:55.254Z,999.74
2017-10-15T17:42:55.246Z,999.72
2017-10-15T17:43:55.226Z,999.72
2017-10-15T17:44:55.204Z,999.71
2017-10-15T17:46:16.208Z,999.74
2017-10-15T17:46:55.172Z,999.75
2017-10-15T17:47:55.141Z,999.73
2017-10-15T17:48:55.135Z,999.77
2017-10-15T17:49:55.130Z,999.77
2017-10-15T17:50:55.093Z,999.74
2017-10-15T17:52:16.090Z,999.78
2017-10-15T17:52:55.077Z,999.77
2017-10-15T17:53:55.061Z,999.76
2017-10-15T17:54:55.073Z,999.75
2017-10-15T17:55:55.042Z,999.73
2017-10-15T17:56:54.990Z,999.75
2017-10-15T17:58:15.972Z,999.73
2017-10-15T17:58:54.975Z,999.74
2017-10-15T17:59:54.933Z,999.73
2017-10-15T18:00:54.933Z,999.78
2017-10-15T18:01:54.921Z,999.78
2017-10-15T18:02:54.888Z,999.76
2017-10-15T18:04:16.636Z,999.74
2017-10-15T18:04:54.851Z,999.80
2017-10-15T18:05:54.853Z,999.77
2017-10-15T18:06:54.823Z,999.77
2017-10-15T18:07:54.855Z,999.78
2017-10-15T18:08:54.779Z,999.83
2017-10-15T18:10:15.829Z,999.74
2017-10-15T18:10:54.750Z,999.74
2017-10-15T18:11:54.741Z,999.77
2017-10-15T18:12:54.720Z,999.79
2017-10-15T18:13:54.711Z,999.73
2017-10-15T18:14:54.686Z,999.71
2017-10-15T18:16:15.664Z,999.74
2017-10-15T18:16:54.652Z,999.70
2017-10-15T18:17:54.632Z,999.73
2017-10-15T18:18:54.615Z,999.73
2017-10-15T18:19:54.599Z,999.72
2017-10-15T18:20:54.567Z,999.68
2017-10-15T18:22:15.560Z,999.69
2017-10-15T18:22:54.555Z,999.67
2017-10-15T18:23:54.550Z,999.71
2017-10-15T18:24:54.519Z,999.71
2017-10-15T18:25:54.489Z,999.67
2017-10-15T18:26:54.482Z,999.68
2017-10-15T18:28:15.488Z,999.72
2017-10-15T18:28:54.454Z,999.70
2017-10-15T18:29:54.429Z,999.66
2017-10-15T18:30:54.421Z,999.71
2017-10-15T18:31:54.393Z,999.70
2017-10-15T18:32:54.362Z,999.67
2017-10-15T18:34:15.381Z,999.68
2017-10-15T18:34:54.333Z,999.70
2017-10-15T18:35:54.327Z,999.70
2017-10-15T18:36:54.317Z,999.68
2017-10-15T18:37:54.296Z,999.71
2017-10-15T18:38:54.293Z,999.68
2017-10-15T18:40:15.260Z,999.69
2017-10-15T18:40:54.263Z,999.70
2017-10-15T18:41:54.213Z,999.67
2017-10-15T18:42:54.190Z,999.66
2017-10-15T18:43:54.173Z,999.63
2017-10-15T18:44:54.182Z,999.65
2017-10-15T18:46:15.170Z,999.66
2017-10-15T18:46:54.138Z,999.64
2017-10-15T18:47:54.130Z,999.68
2017-10-15T18:48:54.118Z,999.67
2017-10-15T18:49:54.091Z,999.65
2017-10-15T18:50:54.047Z,999.66
2017-10-15T18:52:15.059Z,999.67
2017-10-15T18:52:54.017Z,999.67
2017-10-15T18:53:54.008Z,999.68
2017-10-15T18:54:53.993Z,999.69
2017-10-15T18:55:53.964Z,999.70
2017-10-15T18:56:53.968Z,999.68
2017-10-15T18:58:14.937Z,999.68
2017-10-15T18:58:53.901Z,999.70
2017-10-15T18:59:53.891Z,999.70
2017-10-15T19:00:53.865Z,999.70
2017-10-15T19:01:53.882Z,999.69
2017-10-15T19:02:53.834Z,999.70
2017-10-15T19:04:14.859Z,999.69
2017-10-15T19:04:53.796Z,999.70
2017-10-15T19:05:53.794Z,999.74
2017-10-15T19:06:53.775Z,999.74
2017-10-15T19:07:53.753Z,999.74
2017-10-15T19:08:53.731Z,999.75
2017-10-15T19:10:14.714Z,999.74
2017-10-15T19:10:53.692Z,999.76
2017-10-15T19:11:53.682Z,999.75
2017-10-15T19:12:53.691Z,999.76
2017-10-15T19:13:53.634Z,999.75
2017-10-15T19:14:53.616Z,999.73
2017-10-15T19:16:14.598Z,999.73
2017-10-15T19:16:53.593Z,999.74
2017-10-15T19:17:53.554Z,999.73
2017-10-15T19:18:53.554Z,999.75
2017-10-15T19:19:53.523Z,999.71
2017-10-15T19:20:53.515Z,999.73
2017-10-15T19:22:14.512Z,999.75
2017-10-15T19:22:53.488Z,999.76
2017-10-15T19:23:53.470Z,999.77
2017-10-15T19:24:53.435Z,999.78
2017-10-15T19:25:53.417Z,999.80
2017-10-15T19:26:53.397Z,999.76
2017-10-15T19:28:14.383Z,999.82
2017-10-15T19:28:53.364Z,999.81
2017-10-15T19:29:53.343Z,999.81
2017-10-15T19:30:53.330Z,999.81
2017-10-15T19:31:53.302Z,999.78
2017-10-15T19:32:53.284Z,999.81
2017-10-15T19:34:14.306Z,999.82
2017-10-15T19:34:53.254Z,999.85
2017-10-15T19:35:53.231Z,999.83
2017-10-15T19:36:53.212Z,999.84
2017-10-15T19:37:53.208Z,999.87
2017-10-15T19:38:53.197Z,999.81
2017-10-15T19:40:14.162Z,999.81
2017-10-15T19:40:53.149Z,999.84
2017-10-15T19:41:53.142Z,999.88
2017-10-15T19:42:53.105Z,999.85
2017-10-15T19:43:53.102Z,999.88
2017-10-15T19:44:53.077Z,999.90
2017-10-15T19:46:14.049Z,999.85
2017-10-15T19:46:53.031Z,999.87
2017-10-15T19:47:53.045Z,999.83
2017-10-15T19:48:53.006Z,999.83
2017-10-15T19:49:52.977Z,999.84
2017-10-15T19:50:52.952Z,999.84
2017-10-15T19:52:13.941Z,999.88
2017-10-15T19:52:52.931Z,999.86
2017-10-15T19:53:52.917Z,999.85
2017-10-15T19:54:52.880Z,999.89
2017-10-15T19:55:52.889Z,999.89
2017-10-15T19:56:52.872Z,999.90
2017-10-15T19:58:13.839Z,999.92
2017-10-15T19:58:52.802Z,999.94
2017-10-15T19:59:52.828Z,999.93
2017-10-15T20:00:52.768Z,999.95
2017-10-15T20:01:52.751Z,999.92
2017-10-15T20:02:52.751Z,999.94
2017-10-15T20:04:13.723Z,999.91
2017-10-15T20:04:52.695Z,999.92
2017-10-15T20:05:52.699Z,999.95
2017-10-15T20:06:52.657Z,1000.02
2017-10-15T20:07:52.670Z,999.98
2017-10-15T20:08:52.640Z,999.98
2017-10-15T20:10:13.602Z,1000.02
2017-10-15T20:10:52.584Z,1000.01
2017-10-15T20:11:52.577Z,1000.00
2017-10-15T20:12:52.553Z,999.97
2017-10-15T20:13:52.553Z,999.97
2017-10-15T20:14:52.516Z,999.98
2017-10-15T20:16:13.492Z,999.95
2017-10-15T20:16:52.469Z,999.93
2017-10-15T20:17:52.490Z,999.93
2017-10-15T20:18:52.443Z,999.93
2017-10-15T20:19:52.412Z,999.95
2017-10-15T20:20:52.401Z,999.92
2017-10-15T20:22:13.383Z,999.97
2017-10-15T20:22:52.357Z,999.97
2017-10-15T20:23:52.352Z,999.96
2017-10-15T20:24:52.322Z,999.99
2017-10-15T20:25:52.323Z,999.98
2017-10-15T20:26:52.294Z,1000.01
2017-10-15T20:28:13.291Z,1000.03
2017-10-15T20:28:52.265Z,1000.00
2017-10-15T20:29:52.230Z,1000.02
2017-10-15T20:30:52.211Z,999.99
2017-10-15T20:31:52.189Z,1000.01
2017-10-15T20:32:52.194Z,999.97
2017-10-15T20:34:13.172Z,999.96
2017-10-15T20:34:52.146Z,1000.00
2017-10-15T20:35:52.126Z,999.97
2017-10-15T20:36:52.106Z,999.98
2017-10-15T20:37:52.087Z,999.98
2017-10-15T20:38:52.069Z,999.96
2017-10-15T20:40:13.051Z,999.97
2017-10-15T20:40:52.036Z,1000.02
2017-10-15T20:41:52.014Z,1000.00
2017-10-15T20:42:52.003Z,1000.04
2017-10-15T20:43:51.982Z,1000.00
2017-10-15T20:44:51.951Z,1000.01
2017-10-15T20:46:12.941Z,1000.02
2017-10-15T20:46:51.912Z,1000.01
2017-10-15T20:47:51.890Z,1000.01
2017-10-15T20:48:51.872Z,1000.03
2017-10-15T20:49:51.856Z,1000.00
2017-10-15T20:50:51.838Z,999.98
2017-10-15T20:52:12.822Z,999.97
2017-10-15T20:52:51.799Z,999.98
2017-10-15T20:53:51.810Z,999.99
2017-10-15T20:54:51.753Z,999.96
2017-10-15T20:55:51.737Z,999.98
2017-10-15T20:56:51.746Z,999.95
2017-10-15T20:58:12.711Z,999.97
2017-10-15T20:58:51.719Z,999.95
2017-10-15T20:59:51.682Z,999.94
2017-10-15T21:00:51.643Z,999.94
2017-10-15T21:01:51.652Z,999.97
2017-10-15T21:02:51.627Z,999.96
2017-10-15T21:04:12.617Z,999.96
2017-10-15T21:04:51.574Z,999.97
2017-10-15T21:05:51.545Z,999.96
2017-10-15T21:06:51.534Z,999.99
2017-10-15T21:07:51.509Z,999.97
2017-10-15T21:08:51.523Z,999.92
2017-10-15T21:10:12.484Z,999.94
2017-10-15T21:10:52.189Z,999.93
2017-10-15T21:11:51.439Z,999.93
2017-10-15T21:12:51.431Z,999.96
2017-10-15T21:13:51.423Z,999.97
2017-10-15T21:14:51.398Z,999.96
2017-10-15T21:16:12.371Z,999.95
2017-10-15T21:16:51.345Z,999.93
2017-10-15T21:17:51.379Z,999.93
2017-10-15T21:18:51.316Z,999.95
2017-10-15T21:19:51.278Z,999.97
2017-10-15T21:20:51.261Z,999.94
2017-10-15T21:22:12.294Z,999.96
2017-10-15T21:22:51.233Z,999.92
2017-10-15T21:23:51.202Z,999.95
2017-10-15T21:24:51.181Z,999.92
2017-10-15T21:25:51.174Z,999.92
2017-10-15T21:26:51.157Z,999.95
2017-10-15T21:28:12.171Z,999.91
2017-10-15T21:28:51.097Z,999.86
2017-10-15T21:29:51.105Z,999.99
2017-10-15T21:30:51.076Z,999.92
2017-10-15T21:31:51.046Z,999.92
2017-10-15T21:32:51.057Z,999.95
2017-10-15T21:34:12.005Z,999.96
2017-10-15T21:34:50.994Z,999.98
2017-10-15T21:35:50.964Z,999.98
2017-10-15T21:36:50.972Z,999.98
2017-10-15T21:37:50.942Z,999.95
2017-10-15T21:38:50.938Z,1000.00
2017-10-15T21:40:11.913Z,999.98
2017-10-15T21:40:50.884Z,999.95
2017-10-15T21:41:50.917Z,1000.02
2017-10-15T21:42:50.903Z,1000.04
2017-10-15T21:43:50.844Z,999.98
2017-10-15T21:44:50.841Z,999.99
2017-10-15T21:46:11.806Z,1000.01
2017-10-15T21:46:50.768Z,999.97
2017-10-15T21:47:50.734Z,999.96
2017-10-15T21:48:50.713Z,999.97
2017-10-15T21:49:50.715Z,1000.01
2017-10-15T21:50:50.670Z,999.98
2017-10-15T21:52:11.672Z,999.93
2017-10-15T21:52:50.679Z,999.97
2017-10-15T21:53:50.639Z,999.93
2017-10-15T21:54:50.647Z,999.95
2017-10-15T21:55:50.607Z,999.95
2017-10-15T21:56:50.589Z,999.92
2017-10-15T21:58:11.583Z,999.94
2017-10-15T21:58:50.521Z,999.87
2017-10-15T21:59:50.562Z,999.90
2017-10-15T22:00:50.501Z,999.93
2017-10-15T22:01:50.545Z,999.91
2017-10-15T22:02:50.465Z,999.94
2017-10-15T22:04:11.483Z,999.92
2017-10-15T22:04:50.447Z,999.91
2017-10-15T22:05:50.389Z,999.89
2017-10-15T22:06:50.444Z,999.92
2017-10-15T22:07:50.349Z,999.94
2017-10-15T22:08:50.346Z,999.88
2017-10-15T22:10:11.316Z,999.93
2017-10-15T22:10:50.316Z,999.92
2017-10-15T22:11:50.311Z,999.91
2017-10-15T22:12:50.276Z,999.90
2017-10-15T22:13:50.236Z,999.88
2017-10-15T22:14:50.203Z,999.88
2017-10-15T22:16:11.192Z,999.91
2017-10-15T22:16:50.163Z,999.93
2017-10-15T22:17:50.178Z,999.89
2017-10-15T22:18:50.153Z,999.95
2017-10-15T22:19:50.119Z,999.92
2017-10-15T22:20:50.100Z,999.89
2017-10-15T22:22:11.072Z,999.90
2017-10-15T22:22:50.055Z,999.92
2017-10-15T22:23:50.078Z,999.98
2017-10-15T22:24:50.028Z,999.92
2017-10-15T22:25:49.990Z,999.96
2017-10-15T22:26:49.974Z,999.96
2017-10-15T22:28:10.978Z,999.97
2017-10-15T22:28:49.936Z,999.95
2017-10-15T22:29:49.939Z,999.99
2017-10-15T22:30:49.892Z,1000.00
2017-10-15T22:31:49.874Z,1000.03
2017-10-15T22:32:49.874Z,999.98
2017-10-15T22:34:10.906Z,999.98
2017-10-15T22:34:49.825Z,1000.00
2017-10-15T22:35:49.799Z,999.98
2017-10-15T22:36:49.780Z,999.99
2017-10-15T22:37:49.748Z,999.94
2017-10-15T22:38:49.757Z,999.98
2017-10-15T22:40:10.743Z,999.97
2017-10-15T22:40:49.697Z,999.97
2017-10-15T22:41:49.696Z,999.99
2017-10-15T22:42:49.657Z,999.95
2017-10-15T22:43:49.654Z,999.96
2017-10-15T22:44:49.622Z,999.93
2017-10-15T22:46:10.619Z,999.90
2017-10-15T22:46:49.596Z,999.95
2017-10-15T22:47:49.568Z,999.94
2017-10-15T22:48:49.542Z,999.92
2017-10-15T22:49:49.521Z,999.95
2017-10-15T22:50:49.509Z,999.98
2017-10-15T22:52:10.473Z,999.95
2017-10-15T22:52:49.460Z,999.96
2017-10-15T22:53:49.442Z,999.99
2017-10-15T22:54:49.418Z,999.99
2017-10-15T22:55:49.418Z,1000.00
2017-10-15T22:56:49.380Z,999.97
2017-10-15T22:58:10.365Z,1000.01
2017-10-15T22:58:49.344Z,999.99
2017-10-15T22:59:49.318Z,999.97
2017-10-15T23:00:49.297Z,1000.02
2017-10-15T23:01:49.312Z,999.97
2017-10-15T23:02:49.265Z,999.96
2017-10-15T23:04:10.249Z,1000.00
2017-10-15T23:04:49.216Z,999.98
2017-10-15T23:05:49.218Z,999.99
2017-10-15T23:06:49.175Z,999.98
2017-10-15T23:07:49.152Z,999.97
2017-10-15T23:08:49.140Z,999.97
2017-10-15T23:10:10.138Z,999.97
2017-10-15T23:10:49.104Z,999.98
2017-10-15T23:11:49.074Z,999.98
2017-10-15T23:12:49.087Z,999.98
2017-10-15T23:13:49.070Z,999.96
2017-10-15T23:14:49.030Z,1000.00
2017-10-15T23:16:10.048Z,999.99
2017-10-15T23:16:48.995Z,999.96
2017-10-15T23:17:48.966Z,999.94
2017-10-15T23:18:48.946Z,999.92
2017-10-15T23:19:48.946Z,999.94
2017-10-15T23:20:48.914Z,999.89
2017-10-15T23:22:09.917Z,999.88
2017-10-15T23:22:48.871Z,999.90
2017-10-15T23:23:48.850Z,999.89
2017-10-15T23:24:48.832Z,999.89
2017-10-15T23:25:48.820Z,999.92
2017-10-15T23:26:48.779Z,999.88
2017-10-15T23:28:09.778Z,999.88
2017-10-15T23:28:48.733Z,999.89
2017-10-15T23:29:48.750Z,999.88
2017-10-15T23:30:48.718Z,999.88
2017-10-15T23:31:48.692Z,999.90
2017-10-15T23:32:48.694Z,999.88
2017-10-15T23:34:09.654Z,999.88
2017-10-15T23:34:48.640Z,999.90
2017-10-15T23:35:48.635Z,999.86
2017-10-15T23:36:48.593Z,999.94
2017-10-15T23:37:48.567Z,999.92
2017-10-15T23:38:48.547Z,999.91
2017-10-15T23:40:09.557Z,999.91
2017-10-15T23:40:48.511Z,999.91
2017-10-15T23:41:48.512Z,999.94
2017-10-15T23:42:48.488Z,999.93
2017-10-15T23:43:48.458Z,999.96
2017-10-15T23:44:48.475Z,999.97
2017-10-15T23:46:09.407Z,999.89
2017-10-15T23:46:48.389Z,999.91
2017-10-15T23:47:48.358Z,999.93
2017-10-15T23:48:48.354Z,999.95
2017-10-15T23:49:48.325Z,999.91
2017-10-15T23:50:48.333Z,999.93
2017-10-15T23:52:09.292Z,999.93
2017-10-15T23:52:48.278Z,999.97
2017-10-15T23:53:48.235Z,999.97
2017-10-15T23:54:48.255Z,999.97
2017-10-15T23:55:48.200Z,999.94
2017-10-15T23:56:48.190Z,999.97
2017-10-15T23:58:09.180Z,999.95
2017-10-15T23:58:48.149Z,999.94
2017-10-15T23:59:48.136Z,999.94
